Time;durP1;ratioP1;P1;durP2;ratioP2;P2;SDS_P1;SDS_P2;PMS_P1;PMS_P2;Temp;Humidity;BMP_temperature;BMP_pressure;BME280_temperature;BME280_humidity;BME280_pressure;Samples;Min_cycle;Max_cycle;Signal;HPM_P1;HPM_P2
2021/10/08 00:02:25;;;;;;;4.80;4.40;;;13.70;99.90;;;;;;9908408;30;20214;-82
2021/10/08 00:07:30;;;;;;;4.50;4.20;;;13.70;99.90;;;;;;9898672;29;20242;-81
2021/10/08 00:12:32;;;;;;;4.50;4.20;;;13.70;99.90;;;;;;9899606;30;20694;-81
2021/10/08 00:17:34;;;;;;;5.30;4.90;;;13.70;99.90;;;;;;9874555;29;20670;-81
2021/10/08 00:22:38;;;;;;;4.00;3.70;;;13.60;99.90;;;;;;9896021;30;20219;-81
2021/10/08 00:27:40;;;;;;;5.27;4.87;;;13.60;99.90;;;;;;9881270;29;20242;-81
2021/10/08 00:32:42;;;;;;;5.00;4.60;;;13.50;99.90;;;;;;9881233;30;20763;-81
2021/10/08 00:37:45;;;;;;;5.00;4.57;;;13.50;99.90;;;;;;9890655;29;20313;-81
2021/10/08 00:42:49;;;;;;;5.00;4.60;;;13.40;99.90;;;;;;9880853;30;20235;-81
2021/10/08 00:47:58;;;;;;;4.80;4.40;;;13.30;99.90;;;;;;9877428;29;20370;-81
2021/10/08 00:53:01;;;;;;;4.80;4.50;;;13.20;99.90;;;;;;9878705;30;20678;-81
2021/10/08 00:58:04;;;;;;;5.93;5.43;;;13.10;99.90;;;;;;9897869;29;20699;-81
2021/10/08 01:03:06;;;;;;;5.57;5.17;;;13.00;99.90;;;;;;9877598;30;20218;-82
2021/10/08 01:08:11;;;;;;;7.93;6.03;;;12.90;99.90;;;;;;9885542;29;20230;-82
2021/10/08 01:13:15;;;;;;;6.10;5.63;;;12.80;99.90;;;;;;9903650;30;20232;-81
2021/10/08 01:18:18;;;;;;;6.00;5.60;;;12.70;99.90;;;;;;9896690;30;20239;-81
2021/10/08 01:23:22;;;;;;;6.03;5.63;;;12.70;99.90;;;;;;9879668;30;20228;-81
2021/10/08 01:28:28;;;;;;;6.40;5.93;;;12.60;99.90;;;;;;9901575;30;20235;-81
2021/10/08 01:33:33;;;;;;;7.67;6.50;;;12.60;99.90;;;;;;9893843;30;20215;-81
2021/10/08 01:38:37;;;;;;;7.00;6.40;;;12.50;99.90;;;;;;9885316;30;20239;-81
2021/10/08 01:43:39;;;;;;;6.00;5.70;;;12.40;99.90;;;;;;9900883;30;20219;-81
2021/10/08 01:48:42;;;;;;;7.03;6.33;;;12.30;99.90;;;;;;9884126;30;20239;-81
2021/10/08 01:53:46;;;;;;;7.77;7.17;;;12.30;99.90;;;;;;9889305;30;20218;-81
2021/10/08 01:58:49;;;;;;;7.10;6.60;;;12.20;99.90;;;;;;9878669;30;20246;-81
2021/10/08 02:03:52;;;;;;;6.97;6.37;;;12.20;99.90;;;;;;9880311;30;20214;-81
2021/10/08 02:09:01;;;;;;;6.67;6.13;;;12.10;99.90;;;;;;9872187;30;20239;-81
2021/10/08 02:14:08;;;;;;;7.30;6.60;;;12.10;99.90;;;;;;9893757;30;20701;-81
2021/10/08 02:19:11;;;;;;;7.83;7.07;;;12.10;99.90;;;;;;9889001;30;20266;-81
2021/10/08 02:24:20;;;;;;;7.20;6.60;;;12.10;99.90;;;;;;9889058;30;20688;-84
2021/10/08 02:29:25;;;;;;;7.50;7.00;;;12.10;99.90;;;;;;9893795;30;20239;-83
2021/10/08 02:34:29;;;;;;;7.17;6.57;;;12.10;99.90;;;;;;9878075;30;20718;-83
2021/10/08 02:39:33;;;;;;;9.90;8.20;;;12.00;99.90;;;;;;9887282;30;20235;-83
2021/10/08 02:44:36;;;;;;;8.37;7.67;;;12.00;99.90;;;;;;9872927;30;20228;-83
2021/10/08 02:49:38;;;;;;;8.40;7.73;;;12.00;99.90;;;;;;9885480;30;20243;-83
2021/10/08 02:54:42;;;;;;;8.60;8.00;;;11.90;99.90;;;;;;9900781;30;20231;-83
2021/10/08 02:59:44;;;;;;;8.70;7.80;;;11.90;99.90;;;;;;9901341;30;20231;-83
2021/10/08 03:04:46;;;;;;;8.80;8.20;;;11.80;99.90;;;;;;9874904;30;20215;-81
2021/10/08 03:09:50;;;;;;;8.40;7.80;;;11.80;99.90;;;;;;9895750;30;20783;-83
2021/10/08 03:14:53;;;;;;;8.30;7.60;;;11.80;99.90;;;;;;9879383;30;20292;-81
2021/10/08 03:19:56;;;;;;;9.47;8.43;;;11.80;99.90;;;;;;9870852;30;20766;-83
2021/10/08 03:24:59;;;;;;;9.47;8.77;;;11.70;99.90;;;;;;9893343;30;20238;-83
2021/10/08 03:30:02;;;;;;;8.60;8.00;;;11.70;99.90;;;;;;9881592;30;20238;-81
2021/10/08 03:35:07;;;;;;;9.50;8.80;;;11.70;99.90;;;;;;9894040;30;20231;-81
2021/10/08 03:40:19;;;;;;;9.40;8.60;;;11.70;99.90;;;;;;9882144;30;20246;-81
2021/10/08 03:45:23;;;;;;;8.70;8.10;;;11.70;99.90;;;;;;9893181;29;20226;-81
2021/10/08 03:50:25;;;;;;;9.03;8.33;;;11.70;99.90;;;;;;9896659;30;20210;-81
2021/10/08 03:55:29;;;;;;;10.13;9.30;;;11.60;99.90;;;;;;9898346;29;20266;-82
2021/10/08 04:00:32;;;;;;;10.40;9.40;;;11.60;99.90;;;;;;9909041;30;20594;-81
2021/10/08 04:05:45;;;;;;;9.40;8.50;;;11.60;99.90;;;;;;9876794;29;20790;-81
2021/10/08 04:10:51;;;;;;;10.57;9.77;;;11.60;99.90;;;;;;9884555;30;20257;-81
2021/10/08 04:15:53;;;;;;;10.13;9.30;;;11.50;99.90;;;;;;9887523;29;20739;-81
2021/10/08 04:20:57;;;;;;;10.50;9.70;;;11.50;99.90;;;;;;9900941;30;20280;-82
2021/10/08 04:26:01;;;;;;;9.83;9.03;;;11.50;99.90;;;;;;9884977;29;20234;-81
2021/10/08 04:31:04;;;;;;;9.90;9.00;;;11.50;99.90;;;;;;9885730;30;20214;-81
2021/10/08 04:36:07;;;;;;;10.83;9.93;;;11.50;99.90;;;;;;9913124;24;20611;-83
2021/10/08 04:41:15;;;;;;;11.00;10.00;;;11.50;99.90;;;;;;9876992;30;20219;-83
2021/10/08 04:46:19;;;;;;;9.07;8.30;;;11.40;99.90;;;;;;9872565;29;20242;-83
2021/10/08 04:51:23;;;;;;;10.77;9.87;;;11.40;99.90;;;;;;9882189;30;20219;-83
2021/10/08 04:56:27;;;;;;;12.10;11.10;;;11.50;99.90;;;;;;9900023;29;20611;-84
2021/10/08 05:01:30;;;;;;;10.23;9.40;;;11.40;99.90;;;;;;9907301;30;20226;-83
2021/10/08 05:06:37;;;;;;;10.23;9.33;;;11.40;99.90;;;;;;9918193;29;20269;-84
2021/10/08 05:11:40;;;;;;;12.30;11.20;;;11.40;99.90;;;;;;9893345;30;20222;-84
2021/10/08 05:16:43;;;;;;;14.70;13.40;;;11.40;99.90;;;;;;9902669;29;20234;-84
2021/10/08 05:21:48;;;;;;;10.23;9.43;;;11.30;99.90;;;;;;9917594;30;20329;-84
2021/10/08 05:26:52;;;;;;;12.03;9.80;;;11.30;99.90;;;;;;9904726;29;20237;-84
2021/10/08 05:31:54;;;;;;;11.07;10.00;;;11.30;99.90;;;;;;9887609;30;20279;-84
2021/10/08 05:36:56;;;;;;;11.77;10.80;;;11.30;99.90;;;;;;9891645;29;20277;-84
2021/10/08 05:42:00;;;;;;;10.50;9.60;;;11.30;99.90;;;;;;9902133;30;20245;-84
2021/10/08 05:47:03;;;;;;;10.23;9.47;;;11.30;99.90;;;;;;9902507;29;20240;-84
2021/10/08 05:52:06;;;;;;;11.00;10.13;;;11.30;99.90;;;;;;9889034;30;20245;-84
2021/10/08 05:57:10;;;;;;;12.60;11.53;;;11.40;99.90;;;;;;9914532;29;20238;-84
2021/10/08 06:02:12;;;;;;;11.70;10.80;;;11.40;99.90;;;;;;9920573;30;20242;-84
2021/10/08 06:07:15;;;;;;;11.77;10.77;;;11.40;99.90;;;;;;9904038;29;20230;-84
2021/10/08 06:12:20;;;;;;;10.60;9.70;;;11.40;99.90;;;;;;9898493;30;20225;-84
2021/10/08 06:17:22;;;;;;;11.47;10.57;;;11.50;99.90;;;;;;9883504;29;20238;-84
2021/10/08 06:22:28;;;;;;;12.23;11.17;;;11.50;99.90;;;;;;9897716;30;20215;-84
2021/10/08 06:27:36;;;;;;;11.87;10.90;;;11.60;99.90;;;;;;9897293;29;20780;-84
2021/10/08 06:32:41;;;;;;;12.47;11.27;;;11.60;99.90;;;;;;9885350;30;20687;-84
2021/10/08 06:37:45;;;;;;;12.93;11.80;;;11.60;99.90;;;;;;9910912;29;20249;-84
2021/10/08 06:42:48;;;;;;;12.13;10.93;;;11.50;99.90;;;;;;9895927;30;20211;-84
2021/10/08 06:48:26;;;;;;;11.77;10.77;;;11.60;99.90;;;;;;9883637;29;20266;-84
2021/10/08 06:53:32;;;;;;;12.10;11.10;;;11.60;99.90;;;;;;9889889;30;20302;-84
2021/10/08 06:58:43;;;;;;;12.23;11.23;;;11.70;99.90;;;;;;9899728;30;20242;-84
2021/10/08 07:03:46;;;;;;;15.93;12.17;;;11.70;99.90;;;;;;9908266;30;20211;-83
2021/10/08 07:08:51;;;;;;;12.50;11.60;;;11.80;99.90;;;;;;9892504;30;20234;-84
2021/10/08 07:13:55;;;;;;;13.53;12.23;;;11.90;99.90;;;;;;9878649;30;20226;-83
2021/10/08 07:19:04;;;;;;;14.97;13.60;;;11.90;99.90;;;;;;9889403;29;20253;-83
2021/10/08 07:24:06;;;;;;;14.40;13.20;;;12.00;99.90;;;;;;9892170;30;20222;-84
2021/10/08 07:29:10;;;;;;;15.53;14.23;;;12.10;99.90;;;;;;9881772;30;20261;-84
2021/10/08 07:34:12;;;;;;;15.23;13.93;;;12.20;99.90;;;;;;9890013;30;20246;-82
2021/10/08 07:39:14;;;;;;;14.70;13.40;;;12.20;99.90;;;;;;9876976;30;20239;-82
2021/10/08 07:44:20;;;;;;;16.63;15.30;;;12.30;99.90;;;;;;9907306;30;20218;-82
2021/10/08 07:49:22;;;;;;;15.13;13.83;;;12.40;99.90;;;;;;9871777;30;20292;-84
2021/10/08 07:54:24;;;;;;;16.40;14.87;;;12.50;99.90;;;;;;9893172;30;20227;-83
2021/10/08 07:59:28;;;;;;;15.33;14.13;;;12.60;99.90;;;;;;9898451;30;20242;-83
2021/10/08 08:04:41;;;;;;;16.63;15.17;;;12.70;99.90;;;;;;9888532;30;20533;-85
2021/10/08 08:10:14;;;;;;;17.87;16.17;;;12.80;99.90;;;;;;9896337;29;20226;-84
2021/10/08 08:15:19;;;;;;;17.43;15.80;;;12.90;99.90;;;;;;9881352;30;20226;-85
2021/10/08 08:20:27;;;;;;;16.63;15.23;;;13.00;99.90;;;;;;9868231;30;20723;-82
2021/10/08 08:25:29;;;;;;;16.60;15.10;;;13.20;99.90;;;;;;9886751;30;20680;-83
2021/10/08 08:30:38;;;;;;;16.60;15.20;;;13.30;99.90;;;;;;9902227;30;20226;-84
2021/10/08 08:35:41;;;;;;;16.17;14.80;;;13.40;99.90;;;;;;9882107;30;20322;-82
2021/10/08 08:40:43;;;;;;;15.67;14.30;;;13.50;99.90;;;;;;9891423;30;20211;-84
2021/10/08 08:45:46;;;;;;;16.37;14.80;;;13.60;99.90;;;;;;9892610;30;20204;-83
2021/10/08 08:50:58;;;;;;;16.40;14.77;;;13.70;99.90;;;;;;9868833;30;20206;-84
2021/10/08 08:56:00;;;;;;;15.20;13.73;;;13.80;99.90;;;;;;9884225;30;20229;-84
2021/10/08 09:01:14;;;;;;;15.93;13.80;;;14.00;99.90;;;;;;9869801;30;20219;-82
2021/10/08 09:06:29;;;;;;;14.17;12.77;;;14.40;99.90;;;;;;10019057;24;20679;-82
2021/10/08 09:11:38;;;;;;;14.63;13.30;;;14.70;99.90;;;;;;9867071;30;20301;-82
2021/10/08 09:17:08;;;;;;;13.73;12.40;;;14.90;99.90;;;;;;9896869;29;20266;-83
2021/10/08 09:22:10;;;;;;;16.40;12.80;;;15.10;99.90;;;;;;9894287;30;20214;-82
2021/10/08 09:27:15;;;;;;;13.50;12.47;;;15.30;99.90;;;;;;9879328;29;20223;-82
2021/10/08 09:32:21;;;;;;;13.83;12.63;;;15.40;99.90;;;;;;9895054;30;20310;-82
2021/10/08 09:37:30;;;;;;;12.50;11.50;;;15.60;99.90;;;;;;9899265;30;20231;-83
2021/10/08 09:42:34;;;;;;;13.33;12.03;;;15.60;99.90;;;;;;9893083;30;20225;-83
2021/10/08 09:47:57;;;;;;;12.10;11.10;;;15.80;99.90;;;;;;9920649;30;20238;-83
2021/10/08 09:53:13;;;;;;;12.40;11.30;;;15.80;99.90;;;;;;9917189;30;20214;-83
2021/10/08 09:58:15;;;;;;;12.07;11.10;;;15.90;99.90;;;;;;9901403;29;20333;-83
2021/10/08 10:03:20;;;;;;;12.50;11.37;;;15.90;99.90;;;;;;9896683;30;20217;-83
2021/10/08 10:08:22;;;;;;;11.97;11.03;;;15.90;99.90;;;;;;9904254;30;20235;-83
2021/10/08 10:13:24;;;;;;;11.40;10.47;;;15.90;99.90;;;;;;9922877;30;20253;-83
2021/10/08 10:18:29;;;;;;;13.13;11.17;;;16.00;99.90;;;;;;9901763;30;20247;-83
2021/10/08 10:23:31;;;;;;;12.20;11.10;;;16.00;99.90;;;;;;9917568;30;20225;-83
2021/10/08 10:28:34;;;;;;;12.37;11.37;;;16.10;99.90;;;;;;9896438;30;20251;-83
2021/10/08 10:33:38;;;;;;;12.37;11.17;;;16.10;99.90;;;;;;9916819;30;20733;-83
2021/10/08 10:38:41;;;;;;;11.20;10.40;;;16.20;99.90;;;;;;9923268;24;20333;-84
2021/10/08 10:43:45;;;;;;;10.83;9.97;;;16.30;99.90;;;;;;9877464;30;20585;-84
2021/10/08 10:49:27;;;;;;;11.30;10.37;;;16.40;99.90;;;;;;9872174;29;20809;-85
2021/10/08 10:55:11;;;;;;;10.83;9.93;;;16.60;99.90;;;;;;9876681;30;20353;-84
2021/10/08 11:00:32;;;;;;;12.47;11.30;;;16.70;99.90;;;;;;9846465;30;20235;-84
2021/10/08 11:05:37;;;;;;;12.20;11.20;;;16.80;99.90;;;;;;9874913;30;20215;-84
2021/10/08 11:10:42;;;;;;;11.77;10.70;;;16.90;99.90;;;;;;9861261;30;20257;-84
2021/10/08 11:15:53;;;;;;;11.60;10.57;;;17.00;99.90;;;;;;9861541;30;20223;-84
2021/10/08 11:20:55;;;;;;;11.70;10.53;;;17.10;99.90;;;;;;9860302;30;20218;-84
2021/10/08 11:25:59;;;;;;;11.23;10.33;;;17.10;99.90;;;;;;9890613;29;20300;-84
2021/10/08 11:31:05;;;;;;;10.50;9.50;;;17.20;99.90;;;;;;9871144;30;20255;-84
2021/10/08 11:36:19;;;;;;;11.83;10.20;;;17.20;99.90;;;;;;9869883;29;20233;-84
2021/10/08 11:41:23;;;;;;;11.53;10.53;;;17.20;99.90;;;;;;9878133;30;20215;-84
2021/10/08 11:46:34;;;;;;;10.70;9.77;;;17.20;99.90;;;;;;9901718;29;20241;-84
2021/10/08 11:51:37;;;;;;;11.10;10.00;;;17.20;99.90;;;;;;9875023;30;20219;-84
2021/10/08 11:56:39;;;;;;;11.40;10.30;;;17.30;99.90;;;;;;9889530;29;20242;-84
2021/10/08 12:01:42;;;;;;;9.13;8.23;;;17.30;99.90;;;;;;9882687;30;20313;-84
2021/10/08 12:06:45;;;;;;;10.60;9.70;;;17.30;99.90;;;;;;9889323;29;20234;-84
2021/10/08 12:23:55;;;;;;;10.20;9.23;;;17.20;99.90;;;;;;9873629;30;20221;-84
2021/10/08 12:28:57;;;;;;;10.83;9.73;;;17.20;99.90;;;;;;9888495;30;20667;-84
2021/10/08 12:33:59;;;;;;;10.77;9.67;;;17.10;99.90;;;;;;9888555;30;20214;-84
2021/10/08 12:39:07;;;;;;;12.40;11.10;;;17.10;99.90;;;;;;9873362;30;20250;-84
2021/10/08 12:44:17;;;;;;;11.27;10.00;;;17.10;99.90;;;;;;9885855;30;20225;-84
2021/10/08 12:49:20;;;;;;;10.57;9.60;;;17.10;99.90;;;;;;9887863;30;20239;-84
2021/10/08 12:54:27;;;;;;;12.30;11.20;;;17.00;99.90;;;;;;9870405;30;20215;-84
2021/10/08 12:59:51;;;;;;;11.63;10.60;;;17.00;99.90;;;;;;9890041;30;20659;-84
2021/10/08 13:05:05;;;;;;;11.47;10.40;;;17.00;99.90;;;;;;9877938;30;20218;-84
2021/10/08 13:10:12;;;;;;;10.83;9.93;;;16.90;99.90;;;;;;9875133;30;20253;-84
2021/10/08 13:15:17;;;;;;;11.80;10.80;;;17.00;99.90;;;;;;9880408;30;20683;-84
2021/10/08 13:20:19;;;;;;;12.80;11.60;;;17.10;99.90;;;;;;9889412;30;20317;-84
2021/10/08 13:25:23;;;;;;;10.80;9.73;;;17.30;99.90;;;;;;9879752;30;20225;-84
2021/10/08 13:30:25;;;;;;;10.63;9.70;;;17.40;99.90;;;;;;9892037;30;20239;-84
2021/10/08 13:35:27;;;;;;;11.73;10.57;;;17.40;99.90;;;;;;9902168;30;20219;-84
2021/10/08 13:40:31;;;;;;;11.53;10.43;;;17.40;99.90;;;;;;9910454;29;20226;-84
2021/10/08 13:45:33;;;;;;;11.37;10.37;;;17.40;99.90;;;;;;9873065;30;20594;-85
2021/10/08 13:50:37;;;;;;;10.53;9.63;;;17.30;99.90;;;;;;9870017;30;20227;-84
2021/10/08 13:55:40;;;;;;;11.27;10.27;;;17.20;99.90;;;;;;9878795;30;20231;-84
2021/10/08 14:00:46;;;;;;;11.77;10.67;;;17.20;99.90;;;;;;9887408;30;20669;-84
2021/10/08 14:06:06;;;;;;;10.63;9.63;;;17.20;99.90;;;;;;9871286;30;20229;-84
2021/10/08 14:11:11;;;;;;;9.90;9.00;;;17.20;99.90;;;;;;9886659;30;20752;-84
2021/10/08 14:16:13;;;;;;;10.70;9.80;;;17.20;99.90;;;;;;9888752;29;20749;-84
2021/10/08 14:21:15;;;;;;;9.00;8.20;;;17.10;99.90;;;;;;9877427;30;20272;-84
2021/10/08 14:26:19;;;;;;;9.77;8.97;;;17.10;99.90;;;;;;9866611;29;20238;-84
2021/10/08 14:31:21;;;;;;;11.17;9.90;;;17.20;99.90;;;;;;9846226;30;20218;-84
2021/10/08 14:36:23;;;;;;;11.30;10.30;;;17.20;99.90;;;;;;9865214;30;20239;-84
2021/10/08 14:41:26;;;;;;;9.33;8.43;;;17.20;99.90;;;;;;9884507;30;20576;-84
2021/10/08 14:46:28;;;;;;;9.47;8.57;;;17.20;99.90;;;;;;9866480;29;20235;-85
2021/10/08 14:51:34;;;;;;;10.10;9.07;;;17.20;99.90;;;;;;9892395;30;20211;-84
2021/10/08 14:56:46;;;;;;;10.60;9.70;;;17.20;99.90;;;;;;9876781;29;20231;-84
2021/10/08 15:01:49;;;;;;;10.90;10.00;;;17.30;99.90;;;;;;9869467;30;20224;-83
2021/10/08 15:06:51;;;;;;;10.83;9.93;;;17.20;99.90;;;;;;9848092;29;20227;-84
2021/10/08 15:11:54;;;;;;;11.43;10.43;;;17.20;99.90;;;;;;9878153;30;20234;-84
2021/10/08 15:16:56;;;;;;;11.13;10.03;;;17.10;99.90;;;;;;9896829;29;20271;-84
2021/10/08 15:21:59;;;;;;;13.20;12.00;;;17.10;99.90;;;;;;9888049;30;20214;-84
2021/10/08 15:27:04;;;;;;;12.07;11.00;;;17.00;99.90;;;;;;9888210;29;20480;-84
2021/10/08 15:32:06;;;;;;;12.00;11.00;;;17.00;99.90;;;;;;9905182;30;20272;-84
2021/10/08 15:37:08;;;;;;;12.77;11.67;;;17.00;99.90;;;;;;9893252;30;20235;-84
2021/10/08 15:42:12;;;;;;;12.30;11.27;;;16.90;99.90;;;;;;9843969;30;20219;-84
2021/10/08 15:47:14;;;;;;;14.50;13.20;;;16.90;99.90;;;;;;9868897;30;20256;-84
2021/10/08 15:52:21;;;;;;;13.40;12.10;;;16.80;99.90;;;;;;9863003;30;20258;-83
2021/10/08 15:57:27;;;;;;;13.03;11.80;;;16.80;99.90;;;;;;9857481;30;20243;-83
2021/10/08 16:02:30;;;;;;;12.47;11.43;;;16.70;99.90;;;;;;9875539;30;20573;-83
2021/10/08 16:07:35;;;;;;;13.23;12.07;;;16.60;99.90;;;;;;9844197;30;20236;-83
2021/10/08 16:12:39;;;;;;;12.63;11.53;;;16.50;99.90;;;;;;9889505;29;20214;-83
2021/10/08 16:17:44;;;;;;;13.43;12.30;;;16.50;99.90;;;;;;9861987;29;20325;-84
2021/10/08 16:22:49;;;;;;;12.43;11.43;;;16.40;99.90;;;;;;9889394;30;20445;-83
2021/10/08 16:27:57;;;;;;;13.47;12.27;;;16.40;99.90;;;;;;9886049;29;20231;-84
2021/10/08 16:32:59;;;;;;;12.67;11.50;;;16.40;99.90;;;;;;9889045;30;20218;-83
2021/10/08 16:38:01;;;;;;;13.50;12.23;;;16.30;99.90;;;;;;9890038;29;20276;-83
2021/10/08 16:43:05;;;;;;;16.73;12.30;;;16.30;99.90;;;;;;9888674;30;20274;-83
2021/10/08 16:48:08;;;;;;;13.27;12.17;;;16.30;99.90;;;;;;9901888;29;20330;-83
2021/10/08 16:53:11;;;;;;;14.80;13.50;;;16.20;99.90;;;;;;9876549;30;20256;-84
2021/10/08 16:58:14;;;;;;;13.17;12.03;;;16.20;99.90;;;;;;9847620;30;20692;-85
2021/10/08 17:03:17;;;;;;;12.97;11.77;;;16.10;99.90;;;;;;9856945;30;20218;-85
2021/10/08 17:08:19;;;;;;;14.20;12.83;;;16.10;99.90;;;;;;9852542;30;20262;-85
2021/10/08 17:13:23;;;;;;;14.17;12.93;;;15.90;99.90;;;;;;9853821;30;20215;-85
2021/10/08 17:18:25;;;;;;;12.97;11.87;;;15.80;99.90;;;;;;9853997;30;20258;-84
2021/10/08 17:23:49;;;;;;;15.27;13.80;;;15.70;99.90;;;;;;9841096;30;20225;-84
2021/10/08 17:29:07;;;;;;;14.10;12.90;;;15.50;99.90;;;;;;9856454;29;20230;-84
2021/10/08 17:34:09;;;;;;;15.57;13.87;;;15.40;99.90;;;;;;9842177;30;20685;-84
2021/10/08 17:39:15;;;;;;;17.17;15.47;;;15.20;99.90;;;;;;9887372;30;20246;-85
2021/10/08 17:44:21;;;;;;;15.60;14.23;;;15.10;99.90;;;;;;9886672;30;20233;-85
2021/10/08 17:49:27;;;;;;;15.10;13.80;;;15.00;99.90;;;;;;9868642;30;20226;-84
2021/10/08 17:54:35;;;;;;;16.50;15.00;;;14.90;99.90;;;;;;9868962;30;20219;-84
2021/10/08 17:59:43;;;;;;;15.80;14.40;;;14.80;99.90;;;;;;9888326;30;20325;-85
2021/10/08 18:04:46;;;;;;;15.73;14.33;;;14.80;99.90;;;;;;9877987;30;20222;-84
2021/10/08 18:09:49;;;;;;;16.30;14.80;;;14.60;99.90;;;;;;9879735;30;20321;-84
2021/10/08 18:14:56;;;;;;;17.07;15.57;;;14.60;99.90;;;;;;9869427;30;20219;-84
2021/10/08 18:19:58;;;;;;;16.93;15.53;;;14.50;99.90;;;;;;9851743;30;20306;-84
2021/10/08 18:25:03;;;;;;;17.27;15.67;;;14.50;99.90;;;;;;9871383;30;20234;-85
2021/10/08 18:30:19;;;;;;;17.93;16.23;;;14.40;99.90;;;;;;9881059;30;20228;-84
2021/10/08 18:35:22;;;;;;;16.53;14.93;;;14.40;99.90;;;;;;9883382;30;20209;-84
2021/10/08 18:40:25;;;;;;;18.70;17.07;;;14.30;99.90;;;;;;9889291;30;20238;-84
2021/10/08 18:45:28;;;;;;;18.77;16.97;;;14.20;99.90;;;;;;9862335;30;20225;-84
2021/10/08 18:50:30;;;;;;;17.43;15.83;;;14.20;99.90;;;;;;9851376;30;20235;-84
2021/10/08 18:55:33;;;;;;;18.10;16.27;;;14.20;99.90;;;;;;9859137;30;20244;-85
2021/10/08 19:00:43;;;;;;;18.30;16.60;;;14.10;99.90;;;;;;9850655;30;20343;-84
2021/10/08 19:05:53;;;;;;;17.17;15.60;;;14.10;99.90;;;;;;9871215;30;20215;-84
2021/10/08 19:11:08;;;;;;;18.73;17.03;;;14.00;99.90;;;;;;9897316;30;20227;-84
2021/10/08 19:16:35;;;;;;;18.70;17.10;;;13.90;99.90;;;;;;9895692;29;20218;-85
2021/10/08 19:21:42;;;;;;;18.80;17.10;;;13.90;99.90;;;;;;9870751;30;20642;-85
2021/10/08 19:26:45;;;;;;;18.37;16.47;;;13.90;99.90;;;;;;9870552;29;20235;-84
2021/10/08 19:31:52;;;;;;;18.70;16.90;;;13.80;99.90;;;;;;9888217;30;20225;-84
2021/10/08 19:36:54;;;;;;;18.00;16.40;;;13.80;99.90;;;;;;9887973;29;20231;-84
2021/10/08 19:41:59;;;;;;;17.47;15.77;;;13.70;99.90;;;;;;9886042;30;20234;-84
2021/10/08 19:47:07;;;;;;;19.20;17.40;;;13.60;99.90;;;;;;9886994;29;20301;-84
2021/10/08 19:52:10;;;;;;;18.47;16.73;;;13.60;99.90;;;;;;9890690;30;20696;-84
2021/10/08 19:57:16;;;;;;;18.90;16.60;;;13.50;99.90;;;;;;9872122;29;20235;-85
2021/10/08 20:02:25;;;;;;;19.83;17.93;;;13.50;99.90;;;;;;9878675;30;20214;-85
2021/10/08 20:18:14;;;;;;;19.10;17.40;;;13.40;99.90;;;;;;9867257;29;20234;-84
2021/10/08 20:23:16;;;;;;;19.43;17.73;;;13.40;99.90;;;;;;9860745;30;20215;-84
2021/10/08 20:28:20;;;;;;;19.27;17.40;;;13.30;99.90;;;;;;9896923;29;20231;-84
2021/10/08 20:33:25;;;;;;;21.37;19.50;;;13.20;99.90;;;;;;9873212;30;20210;-84
2021/10/08 20:38:29;;;;;;;21.13;18.93;;;13.20;99.90;;;;;;9873536;29;20316;-85
2021/10/08 20:43:35;;;;;;;21.57;19.27;;;13.20;99.90;;;;;;9879280;30;20213;-84
2021/10/08 20:48:38;;;;;;;20.40;18.30;;;13.10;99.90;;;;;;9850367;29;20218;-84
2021/10/08 20:53:40;;;;;;;20.20;18.30;;;13.10;99.90;;;;;;9883543;30;20308;-85
2021/10/08 20:58:42;;;;;;;21.97;19.67;;;13.10;99.90;;;;;;9860139;30;20241;-85
2021/10/08 21:03:46;;;;;;;19.80;17.90;;;13.00;99.90;;;;;;9865225;30;20211;-84
2021/10/08 21:08:48;;;;;;;20.70;18.80;;;13.00;99.90;;;;;;9874973;29;20772;-85
2021/10/08 21:13:50;;;;;;;21.00;19.10;;;12.90;99.90;;;;;;9878462;30;20617;-85
2021/10/08 21:18:53;;;;;;;20.80;18.80;;;12.90;99.90;;;;;;9866778;29;20327;-84
2021/10/08 21:23:56;;;;;;;21.30;19.10;;;12.90;99.90;;;;;;9875614;30;20357;-84
2021/10/08 21:29:04;;;;;;;21.03;18.83;;;12.80;99.90;;;;;;9881530;29;20764;-84
2021/10/08 21:34:08;;;;;;;19.80;17.80;;;12.80;99.90;;;;;;9862788;30;20221;-84
2021/10/08 21:39:12;;;;;;;19.97;18.17;;;12.80;99.90;;;;;;9886412;30;20265;-85
2021/10/08 21:44:14;;;;;;;21.40;19.17;;;12.70;99.90;;;;;;9887105;30;20230;-84
2021/10/08 21:49:20;;;;;;;21.00;19.10;;;12.70;99.90;;;;;;9886012;30;20242;-85
2021/10/08 21:54:26;;;;;;;19.90;18.10;;;12.70;99.90;;;;;;9866701;30;20219;-84
2021/10/08 21:59:29;;;;;;;21.30;19.30;;;12.70;99.90;;;;;;9889447;30;20226;-85
2021/10/08 22:04:35;;;;;;;20.13;18.20;;;12.60;99.90;;;;;;9858584;30;20301;-84
2021/10/08 22:09:41;;;;;;;20.77;18.87;;;12.60;99.90;;;;;;9856019;30;20543;-85
2021/10/08 22:14:43;;;;;;;20.97;18.90;;;12.60;99.90;;;;;;9904901;30;20215;-85
2021/10/08 22:19:52;;;;;;;21.93;19.77;;;12.50;99.90;;;;;;9890544;30;20273;-84
2021/10/08 22:24:58;;;;;;;21.73;19.70;;;12.50;99.90;;;;;;9876386;30;20276;-84
2021/10/08 22:35:25;;;;;;;20.37;18.37;;;12.40;99.90;;;;;;9868872;30;20202;-85
2021/10/08 22:40:27;;;;;;;20.40;18.43;;;12.30;99.90;;;;;;9881451;30;20302;-83
2021/10/08 22:45:30;;;;;;;20.67;18.73;;;12.30;99.90;;;;;;9884259;30;20218;-84
2021/10/08 22:50:33;;;;;;;19.83;17.93;;;12.30;99.90;;;;;;9863225;30;20231;-84
2021/10/08 22:55:36;;;;;;;20.90;18.60;;;12.20;99.90;;;;;;9862301;30;20235;-83
2021/10/08 23:00:44;;;;;;;19.00;17.10;;;12.10;99.90;;;;;;9888142;30;20245;-84
2021/10/08 23:05:50;;;;;;;19.20;17.47;;;12.10;99.90;;;;;;9889945;30;20222;-84
2021/10/08 23:11:13;;;;;;;18.73;16.93;;;12.00;99.90;;;;;;9870919;30;20269;-84
2021/10/08 23:16:15;;;;;;;17.10;15.50;;;12.00;99.90;;;;;;9860225;29;20648;-84
2021/10/08 23:21:18;;;;;;;17.50;15.80;;;12.00;99.90;;;;;;9883279;30;20261;-84
2021/10/08 23:26:21;;;;;;;19.83;17.30;;;12.00;99.90;;;;;;9877935;29;20235;-84
2021/10/08 23:31:23;;;;;;;18.47;16.60;;;11.90;99.90;;;;;;9866513;30;20219;-84
2021/10/08 23:36:26;;;;;;;18.33;16.63;;;11.90;99.90;;;;;;9847014;30;20709;-84
2021/10/08 23:41:29;;;;;;;19.03;17.23;;;11.90;99.90;;;;;;9848222;30;20326;-84
2021/10/08 23:46:31;;;;;;;17.87;16.07;;;11.80;99.90;;;;;;9861491;30;20227;-84
2021/10/08 23:51:36;;;;;;;17.80;16.10;;;11.80;99.90;;;;;;9846329;30;20595;-84
2021/10/08 23:56:38;;;;;;;20.20;18.10;;;11.70;99.90;;;;;;9865763;30;20231;-83
